Time;durP1;ratioP1;P1;durP2;ratioP2;P2;SDS_P1;SDS_P2;PMS_P1;PMS_P2;Temp;Humidity;BMP_temperature;BMP_pressure;BME280_temperature;BME280_humidity;BME280_pressure;Samples;Min_cycle;Max_cycle;Signal;HPM_P1;HPM_P2
2022/09/16 00:03:48;;;;;;;10.35;6.22;;;;;;;;;;8411109;28;20036;-82
2022/09/16 00:07:50;;;;;;;14.85;6.82;;;;;;;;;;8435425;28;20414;-81
2022/09/16 00:11:53;;;;;;;10.45;6.15;;;;;;;;;;8407985;28;20106;-81
2022/09/16 00:15:55;;;;;;;13.63;6.90;;;;;;;;;;8400881;28;20473;-82
2022/09/16 00:19:59;;;;;;;15.07;6.82;;;;;;;;;;8401793;28;20049;-81
2022/09/16 00:24:02;;;;;;;10.38;6.22;;;;;;;;;;8400993;28;20041;-86
2022/09/16 00:28:04;;;;;;;12.52;6.95;;;;;;;;;;8409058;28;20085;-82
2022/09/16 00:32:07;;;;;;;10.27;6.68;;;;;;;;;;8415381;28;20045;-81
2022/09/16 00:36:13;;;;;;;12.13;6.70;;;;;;;;;;8401265;28;20045;-82
2022/09/16 00:40:16;;;;;;;17.98;6.88;;;;;;;;;;8401090;28;20087;-81
2022/09/16 00:44:53;;;;;;;16.00;7.72;;;;;;;;;;8400154;28;20098;-81
2022/09/16 00:48:56;;;;;;;10.10;7.18;;;;;;;;;;8324726;28;20058;-81
2022/09/16 00:53:00;;;;;;;18.25;7.03;;;;;;;;;;8329506;28;20119;-82
2022/09/16 00:57:05;;;;;;;12.98;7.53;;;;;;;;;;8329935;28;20045;-81
2022/09/16 01:01:08;;;;;;;14.70;7.50;;;;;;;;;;8329982;28;20084;-81
2022/09/16 01:05:13;;;;;;;16.92;8.52;;;;;;;;;;8329758;28;20056;-81
2022/09/16 01:09:19;;;;;;;19.75;8.82;;;;;;;;;;8329533;28;20057;-82
2022/09/16 01:13:22;;;;;;;22.27;9.00;;;;;;;;;;8329617;28;20056;-81
2022/09/16 01:17:47;;;;;;;23.73;10.68;;;;;;;;;;8340405;28;20063;-81
2022/09/16 01:21:59;;;;;;;19.48;9.85;;;;;;;;;;8410807;28;20045;-81
2022/09/16 01:26:20;;;;;;;16.45;8.68;;;;;;;;;;8398531;28;20048;-81
2022/09/16 01:30:55;;;;;;;17.70;9.82;;;;;;;;;;8399839;28;20052;-81
2022/09/16 01:35:08;;;;;;;22.05;10.18;;;;;;;;;;8379266;28;20128;-81
2022/09/16 01:39:18;;;;;;;;;;;;;;;;;;8399354;28;20055;-81
2022/09/16 01:43:25;;;;;;;18.92;9.85;;;;;;;;;;8412961;28;19978;-81
2022/09/16 01:47:36;;;;;;;19.92;10.35;;;;;;;;;;8405930;28;20060;-82
2022/09/16 01:51:45;;;;;;;21.25;10.48;;;;;;;;;;8398366;28;20041;-81
2022/09/16 01:55:52;;;;;;;16.92;9.88;;;;;;;;;;8407801;28;20044;-81
2022/09/16 02:00:01;;;;;;;20.85;10.07;;;;;;;;;;8398276;28;20644;-81
2022/09/16 02:04:08;;;;;;;20.80;9.85;;;;;;;;;;8411760;28;20060;-81
2022/09/16 02:08:14;;;;;;;21.65;10.55;;;;;;;;;;8397706;28;20056;-81
2022/09/16 02:12:22;;;;;;;23.80;10.63;;;;;;;;;;8397781;28;20044;-81
2022/09/16 02:16:35;;;;;;;24.10;11.00;;;;;;;;;;8397656;28;20090;-81
2022/09/16 02:20:42;;;;;;;23.80;12.07;;;;;;;;;;8397529;28;20044;-81
2022/09/16 02:24:48;;;;;;;25.50;12.50;;;;;;;;;;8397095;28;20743;-81
2022/09/16 02:28:55;;;;;;;28.38;11.82;;;;;;;;;;8398153;28;20075;-81
2022/09/16 02:33:02;;;;;;;26.83;10.90;;;;;;;;;;8396943;28;20185;-81
2022/09/16 02:37:10;;;;;;;27.85;12.93;;;;;;;;;;8396666;28;20050;-81
2022/09/16 02:41:14;;;;;;;29.90;12.55;;;;;;;;;;8397338;28;20416;-82
2022/09/16 02:45:17;;;;;;;25.52;11.65;;;;;;;;;;8396470;28;20056;-81
2022/09/16 02:49:27;;;;;;;26.75;12.27;;;;;;;;;;8396443;28;20048;-81
2022/09/16 02:53:45;;;;;;;23.05;11.73;;;;;;;;;;8396336;28;20047;-81
2022/09/16 02:57:49;;;;;;;24.75;11.32;;;;;;;;;;8396375;28;20044;-81
2022/09/16 03:01:51;;;;;;;27.67;12.00;;;;;;;;;;8396021;28;20109;-81
2022/09/16 03:06:19;;;;;;;30.05;12.63;;;;;;;;;;8410151;28;20471;-81
2022/09/16 03:10:25;;;;;;;26.38;11.60;;;;;;;;;;8392135;28;20056;-81
2022/09/16 03:14:53;;;;;;;15.63;8.43;;;;;;;;;;8396009;28;20460;-81
2022/09/16 03:19:03;;;;;;;20.17;9.65;;;;;;;;;;8395810;28;20049;-81
2022/09/16 03:23:14;;;;;;;19.83;10.90;;;;;;;;;;8395694;28;20045;-82
2022/09/16 03:27:28;;;;;;;24.08;9.75;;;;;;;;;;8395717;28;20515;-81
2022/09/16 03:31:36;;;;;;;19.83;10.73;;;;;;;;;;8395508;28;20070;-81
2022/09/16 03:35:43;;;;;;;22.10;11.05;;;;;;;;;;8395645;28;20048;-85
2022/09/16 03:39:52;;;;;;;40.03;18.50;;;;;;;;;;8395469;28;20094;-81
2022/09/16 03:43:57;;;;;;;21.08;12.20;;;;;;;;;;8395929;28;20476;-81
2022/09/16 03:48:00;;;;;;;15.00;8.70;;;;;;;;;;8413154;28;20143;-81
2022/09/16 03:52:04;;;;;;;16.20;7.43;;;;;;;;;;8402624;28;20097;-81
2022/09/16 03:56:07;;;;;;;11.25;6.78;;;;;;;;;;8402393;28;20068;-81
2022/09/16 04:00:14;;;;;;;9.10;5.93;;;;;;;;;;8402046;28;20047;-81
2022/09/16 04:04:17;;;;;;;9.10;5.63;;;;;;;;;;8416207;28;20087;-81
2022/09/16 04:08:20;;;;;;;8.82;5.72;;;;;;;;;;8401533;28;20475;-82
2022/09/16 04:12:22;;;;;;;80.50;29.63;;;;;;;;;;8401741;28;20119;-81
2022/09/16 04:16:26;;;;;;;70.25;33.30;;;;;;;;;;8401442;28;20483;-81
2022/09/16 04:20:29;;;;;;;33.60;18.65;;;;;;;;;;8401348;28;20048;-81
2022/09/16 04:24:31;;;;;;;15.90;8.65;;;;;;;;;;8400958;28;20045;-81
2022/09/16 04:28:34;;;;;;;36.05;19.30;;;;;;;;;;8400978;28;20044;-81
2022/09/16 04:32:38;;;;;;;40.85;25.15;;;;;;;;;;8400881;28;20049;-81
2022/09/16 04:36:41;;;;;;;20.63;10.65;;;;;;;;;;8401070;28;20049;-82
2022/09/16 04:40:44;;;;;;;18.90;13.05;;;;;;;;;;8409426;28;20498;-81
2022/09/16 04:44:46;;;;;;;15.32;8.13;;;;;;;;;;8404962;28;20128;-81
2022/09/16 04:48:57;;;;;;;16.15;10.68;;;;;;;;;;8424545;28;20044;-84
2022/09/16 04:53:10;;;;;;;11.32;7.93;;;;;;;;;;8404701;28;20048;-85
2022/09/16 04:57:21;;;;;;;11.30;5.60;;;;;;;;;;8401031;28;20049;-89
2022/09/16 05:01:28;;;;;;;9.63;5.65;;;;;;;;;;8400535;28;20438;-81
2022/09/16 05:05:35;;;;;;;9.82;4.75;;;;;;;;;;8408656;28;20098;-81
2022/09/16 05:09:37;;;;;;;11.88;5.38;;;;;;;;;;8399727;28;20056;-81
2022/09/16 05:13:47;;;;;;;7.35;4.05;;;;;;;;;;8400065;28;20055;-89
2022/09/16 05:17:58;;;;;;;8.88;4.35;;;;;;;;;;8399863;28;20040;-89
2022/09/16 05:22:12;;;;;;;6.53;3.50;;;;;;;;;;8399565;28;20048;-90
2022/09/16 05:26:27;;;;;;;5.35;2.97;;;;;;;;;;8399324;28;20040;-83
2022/09/16 05:30:39;;;;;;;6.50;3.38;;;;;;;;;;8413662;28;20098;-87
2022/09/16 05:34:50;;;;;;;10.90;3.67;;;;;;;;;;8415146;28;20044;-83
2022/09/16 05:38:55;;;;;;;7.25;3.33;;;;;;;;;;8409930;28;20058;-81
2022/09/16 05:42:58;;;;;;;7.63;3.30;;;;;;;;;;8398842;28;20044;-81
2022/09/16 05:47:00;;;;;;;7.50;2.90;;;;;;;;;;8398664;28;20044;-81
2022/09/16 05:51:05;;;;;;;8.10;3.08;;;;;;;;;;8398522;28;20057;-81
2022/09/16 05:55:09;;;;;;;7.60;3.05;;;;;;;;;;8398484;28;20052;-82
2022/09/16 05:59:13;;;;;;;5.93;3.30;;;;;;;;;;8398411;28;20047;-82
2022/09/16 06:03:16;;;;;;;7.30;2.85;;;;;;;;;;8406457;28;20472;-83
2022/09/16 06:07:18;;;;;;;4.82;2.80;;;;;;;;;;8419147;28;20056;-91
2022/09/16 06:11:23;;;;;;;6.03;2.72;;;;;;;;;;8410278;28;20052;-88
2022/09/16 06:15:26;;;;;;;4.25;2.50;;;;;;;;;;8395765;28;20040;-90
2022/09/16 06:19:29;;;;;;;8.48;3.28;;;;;;;;;;8418549;28;20073;-87
2022/09/16 06:23:32;;;;;;;6.03;2.95;;;;;;;;;;8427565;28;20040;-88
2022/09/16 06:27:36;;;;;;;5.28;2.83;;;;;;;;;;8432175;28;20090;-90
2022/09/16 06:31:40;;;;;;;4.13;2.60;;;;;;;;;;8432714;28;20048;-87
2022/09/16 06:35:42;;;;;;;6.38;3.10;;;;;;;;;;8425957;28;20372;-89
2022/09/16 06:39:45;;;;;;;8.55;2.85;;;;;;;;;;8429465;28;20702;-90
2022/09/16 06:43:51;;;;;;;7.50;2.90;;;;;;;;;;8424938;28;20044;-91
2022/09/16 06:47:53;;;;;;;5.60;2.80;;;;;;;;;;8425246;28;20048;-91
2022/09/16 06:51:56;;;;;;;7.75;3.10;;;;;;;;;;8413548;28;20055;-89
2022/09/16 06:56:01;;;;;;;4.47;2.85;;;;;;;;;;8410276;28;20036;-91
2022/09/16 07:00:06;;;;;;;5.65;3.08;;;;;;;;;;8429474;28;20492;-89
2022/09/16 07:04:12;;;;;;;6.38;2.72;;;;;;;;;;8427465;28;20052;-90
2022/09/16 07:08:14;;;;;;;7.18;2.70;;;;;;;;;;8421269;28;20060;-90
2022/09/16 07:12:17;;;;;;;6.57;2.95;;;;;;;;;;8420530;28;20047;-91
2022/09/16 07:16:22;;;;;;;7.97;2.42;;;;;;;;;;8424664;28;20044;-90
2022/09/16 07:20:25;;;;;;;5.72;2.47;;;;;;;;;;8424813;28;20547;-89
2022/09/16 07:24:28;;;;;;;5.40;2.22;;;;;;;;;;8412583;28;20044;-89
2022/09/16 07:28:31;;;;;;;4.97;2.10;;;;;;;;;;8395456;28;20048;-88
2022/09/16 07:32:35;;;;;;;5.53;2.53;;;;;;;;;;8396808;28;20106;-86
2022/09/16 07:36:39;;;;;;;4.72;2.20;;;;;;;;;;8415128;28;20044;-87
2022/09/16 07:40:41;;;;;;;4.47;2.20;;;;;;;;;;8409787;28;20036;-85
2022/09/16 07:44:44;;;;;;;4.00;2.05;;;;;;;;;;8394054;28;20395;-89
2022/09/16 07:48:49;;;;;;;4.28;1.80;;;;;;;;;;8395153;28;20538;-86
2022/09/16 07:52:54;;;;;;;9.23;2.78;;;;;;;;;;8396046;28;20037;-85
2022/09/16 07:56:57;;;;;;;5.15;2.50;;;;;;;;;;8395084;28;20098;-86
2022/09/16 08:01:01;;;;;;;4.10;2.30;;;;;;;;;;8395905;28;20373;-86
2022/09/16 08:05:06;;;;;;;4.22;2.28;;;;;;;;;;8412635;28;20048;-85
2022/09/16 08:09:09;;;;;;;5.80;2.65;;;;;;;;;;8422732;28;20052;-89
2022/09/16 08:13:12;;;;;;;5.10;2.45;;;;;;;;;;8424151;28;20047;-88
2022/09/16 08:17:16;;;;;;;5.03;2.78;;;;;;;;;;8422945;28;20121;-89
2022/09/16 08:21:23;;;;;;;179.48;56.63;;;;;;;;;;8422995;28;20052;-90
2022/09/16 08:25:29;;;;;;;23.83;6.47;;;;;;;;;;8423796;28;20104;-90
2022/09/16 08:29:32;;;;;;;9.77;3.30;;;;;;;;;;8423127;28;20051;-86
2022/09/16 08:33:42;;;;;;;6.75;3.00;;;;;;;;;;8423661;28;20127;-90
2022/09/16 08:37:50;;;;;;;5.93;3.22;;;;;;;;;;8428197;28;20056;-91
2022/09/16 08:42:40;;;;;;;7.65;3.80;;;;;;;;;;8429263;28;20781;-84
2022/09/16 08:46:51;;;;;;;7.60;4.13;;;;;;;;;;8425317;28;20044;-87
2022/09/16 08:50:55;;;;;;;24.60;11.70;;;;;;;;;;8428362;28;20065;-88
2022/09/16 08:55:02;;;;;;;26.20;5.57;;;;;;;;;;8424143;28;20044;-86
2022/09/16 08:59:17;;;;;;;8.52;3.88;;;;;;;;;;8433296;28;20047;-89
2022/09/16 09:03:33;;;;;;;5.35;2.75;;;;;;;;;;8419669;28;20060;-87
2022/09/16 09:07:56;;;;;;;7.32;3.25;;;;;;;;;;8426508;28;20511;-86
2022/09/16 09:12:10;;;;;;;103.32;8.80;;;;;;;;;;8427598;28;20572;-90
2022/09/16 09:16:22;;;;;;;5.32;2.90;;;;;;;;;;8413985;28;20063;-89
2022/09/16 09:20:44;;;;;;;6.00;3.45;;;;;;;;;;8428681;28;20640;-87
2022/09/16 09:24:59;;;;;;;5.50;3.00;;;;;;;;;;8409740;28;20055;-87
2022/09/16 09:29:27;;;;;;;7.63;3.75;;;;;;;;;;8413172;28;20505;-89
2022/09/16 09:33:43;;;;;;;5.85;3.22;;;;;;;;;;8425271;28;20071;-89
2022/09/16 09:38:03;;;;;;;5.55;2.85;;;;;;;;;;8433442;28;20079;-89
2022/09/16 09:42:14;;;;;;;5.05;2.40;;;;;;;;;;8424399;28;20124;-88
2022/09/16 09:46:25;;;;;;;7.07;3.23;;;;;;;;;;8425950;28;20066;-85
2022/09/16 09:50:32;;;;;;;3.77;2.00;;;;;;;;;;8427161;28;20302;-88
2022/09/16 09:54:36;;;;;;;6.20;2.38;;;;;;;;;;8426954;28;20055;-87
2022/09/16 09:58:43;;;;;;;2.92;1.92;;;;;;;;;;8426987;28;20044;-88
2022/09/16 10:02:47;;;;;;;6.97;2.80;;;;;;;;;;8425618;28;20053;-89
2022/09/16 10:06:54;;;;;;;6.07;2.97;;;;;;;;;;8424288;28;20214;-89
2022/09/16 10:10:58;;;;;;;7.50;3.45;;;;;;;;;;8425820;28;20052;-89
2022/09/16 10:15:02;;;;;;;6.22;2.00;;;;;;;;;;8423746;28;20040;-86
2022/09/16 10:19:08;;;;;;;3.47;2.00;;;;;;;;;;8425864;28;20115;-89
2022/09/16 10:23:13;;;;;;;5.75;2.20;;;;;;;;;;8426098;28;20085;-87
2022/09/16 10:27:22;;;;;;;4.32;1.80;;;;;;;;;;8426256;28;20554;-88
2022/09/16 10:31:28;;;;;;;5.10;1.88;;;;;;;;;;8425703;28;20152;-85
2022/09/16 10:35:33;;;;;;;3.47;1.60;;;;;;;;;;8421452;28;20063;-88
2022/09/16 10:39:38;;;;;;;5.72;2.97;;;;;;;;;;8424255;28;20087;-86
2022/09/16 10:43:49;;;;;;;8.48;4.88;;;;;;;;;;8394090;28;20105;-86
2022/09/16 10:47:55;;;;;;;9.80;4.38;;;;;;;;;;8410377;28;20066;-85
2022/09/16 10:52:09;;;;;;;12.80;6.07;;;;;;;;;;8411039;28;20043;-87
2022/09/16 10:56:17;;;;;;;3.45;1.42;;;;;;;;;;8410675;28;20123;-89
2022/09/16 11:00:21;;;;;;;1.70;1.52;;;;;;;;;;8397834;28;20059;-88
2022/09/16 11:04:53;;;;;;;1.63;1.30;;;;;;;;;;8412729;28;20040;-85
2022/09/16 11:09:06;;;;;;;5.72;1.70;;;;;;;;;;8397519;28;20064;-87
2022/09/16 11:13:31;;;;;;;6.20;2.58;;;;;;;;;;8410404;28;20067;-88
2022/09/16 11:17:43;;;;;;;18.42;10.18;;;;;;;;;;8396045;28;20090;-86
2022/09/16 11:22:04;;;;;;;6.47;3.78;;;;;;;;;;8396168;28;20056;-85
2022/09/16 11:26:15;;;;;;;6.28;2.85;;;;;;;;;;8410790;28;20043;-86
2022/09/16 11:30:20;;;;;;;9.48;1.63;;;;;;;;;;8414830;28;20051;-85
2022/09/16 11:34:34;;;;;;;1.73;1.25;;;;;;;;;;8415440;28;20381;-90
2022/09/16 11:38:49;;;;;;;5.57;2.92;;;;;;;;;;8395696;28;20051;-85
2022/09/16 11:43:01;;;;;;;6.30;3.50;;;;;;;;;;8395806;28;20102;-85
2022/09/16 11:47:43;;;;;;;9.18;4.28;;;;;;;;;;8400113;28;20076;-90
2022/09/16 11:51:58;;;;;;;2.77;1.40;;;;;;;;;;8409381;28;20119;-89
2022/09/16 11:56:04;;;;;;;3.03;1.65;;;;;;;;;;8410753;28;20555;-88
2022/09/16 12:00:15;;;;;;;3.25;1.77;;;;;;;;;;8430564;28;20135;-89
2022/09/16 12:04:23;;;;;;;6.88;2.92;;;;;;;;;;8417824;28;20492;-84
2022/09/16 12:08:32;;;;;;;4.75;1.67;;;;;;;;;;8421439;28;20055;-86
2022/09/16 12:12:39;;;;;;;3.22;1.30;;;;;;;;;;8425840;28;20495;-84
2022/09/16 12:16:47;;;;;;;1.00;0.90;;;;;;;;;;8427581;28;20044;-83
2022/09/16 12:20:54;;;;;;;3.53;1.50;;;;;;;;;;8408802;28;20044;-82
2022/09/16 12:25:03;;;;;;;2.10;1.90;;;;;;;;;;8428841;28;20125;-83
2022/09/16 12:29:12;;;;;;;1.02;0.93;;;;;;;;;;8429545;28;20051;-85
2022/09/16 12:33:21;;;;;;;1.27;1.00;;;;;;;;;;8424646;28;20097;-83
2022/09/16 12:37:34;;;;;;;1.77;0.90;;;;;;;;;;8431728;28;20035;-89
2022/09/16 12:42:04;;;;;;;2.30;1.75;;;;;;;;;;8429119;28;20392;-86
2022/09/16 12:46:47;;;;;;;3.38;2.00;;;;;;;;;;8427025;28;20044;-83
2022/09/16 12:51:03;;;;;;;5.85;2.35;;;;;;;;;;8388188;28;20048;-84
2022/09/16 12:55:42;;;;;;;1.88;1.40;;;;;;;;;;8427941;28;20048;-88
2022/09/16 12:59:57;;;;;;;1.63;1.40;;;;;;;;;;8428075;28;20486;-87
2022/09/16 13:04:08;;;;;;;6.47;3.45;;;;;;;;;;8427640;28;20055;-83
2022/09/16 13:08:21;;;;;;;6.15;3.25;;;;;;;;;;8428676;28;20052;-84
2022/09/16 13:12:27;;;;;;;3.40;2.38;;;;;;;;;;8428075;28;20105;-85
2022/09/16 13:16:32;;;;;;;2.40;2.00;;;;;;;;;;8424542;28;20139;-86
2022/09/16 13:20:40;;;;;;;2.70;1.40;;;;;;;;;;8420176;28;20391;-85
2022/09/16 13:24:53;;;;;;;2.85;1.50;;;;;;;;;;8426261;28;20054;-85
2022/09/16 13:29:04;;;;;;;3.55;2.38;;;;;;;;;;8425745;28;20052;-85
2022/09/16 13:33:26;;;;;;;2.38;1.75;;;;;;;;;;8426242;28;20055;-90
2022/09/16 13:37:37;;;;;;;5.30;2.20;;;;;;;;;;8428880;28;20036;-90
2022/09/16 13:41:48;;;;;;;4.13;2.58;;;;;;;;;;8428417;28;20136;-90
2022/09/16 13:46:02;;;;;;;14.50;9.25;;;;;;;;;;8426356;28;20048;-85
2022/09/16 13:50:17;;;;;;;5.47;3.15;;;;;;;;;;8424157;28;20055;-89
2022/09/16 13:54:46;;;;;;;4.15;3.03;;;;;;;;;;8426469;28;20032;-89
2022/09/16 13:59:18;;;;;;;4.30;2.15;;;;;;;;;;8373247;28;20479;-84
2022/09/16 14:03:48;;;;;;;4.68;3.25;;;;;;;;;;8425712;28;20044;-89
2022/09/16 14:08:16;;;;;;;3.88;2.47;;;;;;;;;;8406725;28;20054;-90
2022/09/16 14:12:25;;;;;;;4.55;2.80;;;;;;;;;;8423734;28;20054;-88
2022/09/16 14:16:36;;;;;;;5.20;3.80;;;;;;;;;;8425668;28;20058;-90
2022/09/16 14:21:01;;;;;;;3.97;2.50;;;;;;;;;;8415825;28;20048;-88
2022/09/16 14:25:32;;;;;;;2.47;1.65;;;;;;;;;;8427724;28;20119;-90
2022/09/16 14:30:03;;;;;;;5.75;3.75;;;;;;;;;;8411856;28;20051;-89
2022/09/16 14:34:20;;;;;;;4.10;2.22;;;;;;;;;;8426085;28;20051;-87
2022/09/16 14:38:34;;;;;;;8.95;4.10;;;;;;;;;;8403259;28;20354;-88
2022/09/16 14:42:39;;;;;;;3.30;2.10;;;;;;;;;;8402953;28;20525;-88
2022/09/16 14:46:55;;;;;;;6.22;3.63;;;;;;;;;;8402587;28;20044;-90
2022/09/16 14:51:03;;;;;;;5.28;2.97;;;;;;;;;;8410968;28;20143;-89
2022/09/16 14:55:14;;;;;;;9.80;6.00;;;;;;;;;;8427774;28;20051;-90
2022/09/16 14:59:22;;;;;;;4.00;2.58;;;;;;;;;;8426440;28;20535;-90
2022/09/16 15:03:34;;;;;;;5.22;2.60;;;;;;;;;;8425982;28;20093;-89
2022/09/16 15:07:47;;;;;;;35.80;13.48;;;;;;;;;;8393280;28;20087;-88
2022/09/16 15:12:07;;;;;;;24.15;18.40;;;;;;;;;;8425881;28;20402;-90
2022/09/16 15:16:34;;;;;;;3.38;2.60;;;;;;;;;;8425271;28;20135;-89
2022/09/16 15:21:01;;;;;;;5.55;2.30;;;;;;;;;;8425165;28;20047;-86
2022/09/16 15:25:19;;;;;;;6.88;3.50;;;;;;;;;;8390252;28;20043;-89
2022/09/16 15:29:30;;;;;;;36.80;14.32;;;;;;;;;;8407973;28;20048;-87
2022/09/16 15:33:35;;;;;;;16.25;11.38;;;;;;;;;;8410902;28;20044;-83
2022/09/16 15:37:38;;;;;;;20.55;5.63;;;;;;;;;;8424516;28;20058;-87
2022/09/16 15:41:42;;;;;;;5.40;4.00;;;;;;;;;;8422699;28;20119;-86
2022/09/16 15:46:09;;;;;;;15.57;11.52;;;;;;;;;;8424077;28;20055;-89
2022/09/16 15:50:24;;;;;;;7.93;4.57;;;;;;;;;;8412174;28;20418;-85
2022/09/16 15:54:35;;;;;;;3.60;2.00;;;;;;;;;;8431701;28;20052;-88
2022/09/16 15:58:46;;;;;;;2.28;1.90;;;;;;;;;;8394945;28;20056;-82
2022/09/16 16:02:55;;;;;;;2.33;1.80;;;;;;;;;;8422442;28;20123;-85
2022/09/16 16:07:09;;;;;;;9.80;3.57;;;;;;;;;;8420271;28;20052;-87
2022/09/16 16:11:24;;;;;;;7.57;4.65;;;;;;;;;;8392001;28;20928;-87
2022/09/16 16:15:49;;;;;;;6.65;3.15;;;;;;;;;;8422324;28;20119;-89
2022/09/16 16:20:05;;;;;;;5.63;2.65;;;;;;;;;;8422452;28;20048;-88
2022/09/16 16:24:12;;;;;;;6.15;2.67;;;;;;;;;;8423179;28;20127;-85
2022/09/16 16:28:39;;;;;;;5.20;2.97;;;;;;;;;;8423765;28;20082;-88
2022/09/16 16:32:54;;;;;;;3.75;2.30;;;;;;;;;;8411970;28;20047;-87
2022/09/16 16:36:57;;;;;;;5.53;2.63;;;;;;;;;;8422511;28;20543;-86
2022/09/16 16:41:02;;;;;;;5.32;2.95;;;;;;;;;;8414899;28;20048;-88
2022/09/16 16:45:15;;;;;;;6.82;3.35;;;;;;;;;;8428664;28;20472;-82
2022/09/16 16:49:44;;;;;;;5.13;3.10;;;;;;;;;;8427947;28;20480;-85
2022/09/16 16:53:48;;;;;;;5.47;3.15;;;;;;;;;;8408777;28;20453;-83
2022/09/16 16:57:51;;;;;;;5.82;3.35;;;;;;;;;;8427427;28;20147;-83
2022/09/16 17:02:07;;;;;;;7.30;3.50;;;;;;;;;;8410552;28;20055;-88
2022/09/16 17:06:12;;;;;;;6.57;3.63;;;;;;;;;;8427670;28;20465;-85
2022/09/16 17:10:15;;;;;;;7.90;5.10;;;;;;;;;;8406235;28;20771;-82
2022/09/16 17:14:17;;;;;;;12.05;5.10;;;;;;;;;;8408821;28;20143;-82
2022/09/16 17:18:20;;;;;;;7.18;4.40;;;;;;;;;;8432800;28;20098;-88
2022/09/16 17:22:25;;;;;;;7.72;4.00;;;;;;;;;;8430735;28;20047;-86
2022/09/16 17:26:28;;;;;;;5.20;3.28;;;;;;;;;;8430065;28;20040;-82
2022/09/16 17:30:30;;;;;;;8.25;5.03;;;;;;;;;;8435595;28;20048;-86
2022/09/16 17:34:33;;;;;;;6.47;3.78;;;;;;;;;;8436613;28;20044;-86
2022/09/16 17:38:37;;;;;;;12.80;7.47;;;;;;;;;;8428541;28;20044;-83
2022/09/16 17:42:40;;;;;;;8.82;4.47;;;;;;;;;;8431841;28;20052;-87
2022/09/16 17:46:43;;;;;;;9.95;6.00;;;;;;;;;;8430307;28;20112;-82
2022/09/16 17:50:50;;;;;;;9.85;5.78;;;;;;;;;;8431907;28;20373;-83
2022/09/16 17:54:54;;;;;;;10.05;5.93;;;;;;;;;;8431687;28;20070;-83
2022/09/16 17:58:59;;;;;;;8.05;5.03;;;;;;;;;;8432680;28;20040;-83
2022/09/16 18:03:04;;;;;;;8.38;6.55;;;;;;;;;;8431257;28;20072;-83
2022/09/16 18:07:10;;;;;;;15.43;10.45;;;;;;;;;;8432109;28;20052;-82
2022/09/16 18:11:16;;;;;;;17.33;12.23;;;;;;;;;;8430131;28;20453;-85
2022/09/16 18:15:19;;;;;;;15.60;8.98;;;;;;;;;;8431106;28;20052;-84
2022/09/16 18:19:22;;;;;;;21.23;11.73;;;;;;;;;;8431255;28;20047;-82
2022/09/16 18:23:25;;;;;;;15.25;8.18;;;;;;;;;;8432116;28;20077;-82
2022/09/16 18:27:29;;;;;;;16.63;9.65;;;;;;;;;;8427804;28;20373;-82
2022/09/16 18:31:33;;;;;;;25.38;12.38;;;;;;;;;;8427555;28;20123;-89
2022/09/16 18:35:37;;;;;;;22.27;9.90;;;;;;;;;;8427963;28;20086;-82
2022/09/16 18:39:39;;;;;;;17.05;8.30;;;;;;;;;;8428903;28;20135;-81
2022/09/16 18:43:45;;;;;;;125.20;41.90;;;;;;;;;;8431444;28;20097;-82
2022/09/16 18:47:48;;;;;;;40.00;17.30;;;;;;;;;;8411659;28;20144;-81
2022/09/16 18:51:53;;;;;;;18.80;10.45;;;;;;;;;;8396043;28;20056;-81
2022/09/16 18:55:57;;;;;;;17.58;8.88;;;;;;;;;;8395207;28;20066;-82
2022/09/16 19:00:03;;;;;;;23.38;10.75;;;;;;;;;;8396458;28;20215;-82
2022/09/16 19:04:11;;;;;;;60.92;27.25;;;;;;;;;;8410496;28;20048;-82
2022/09/16 19:08:14;;;;;;;42.83;18.00;;;;;;;;;;8395986;28;20411;-82
2022/09/16 19:12:16;;;;;;;28.63;15.70;;;;;;;;;;8396121;28;20056;-83
2022/09/16 19:16:20;;;;;;;18.92;10.25;;;;;;;;;;8396024;28;20040;-82
2022/09/16 19:20:23;;;;;;;17.02;8.02;;;;;;;;;;8396199;28;20094;-82
2022/09/16 19:24:26;;;;;;;12.35;7.75;;;;;;;;;;8395902;28;20045;-82
2022/09/16 19:28:30;;;;;;;12.32;6.68;;;;;;;;;;8396303;28;20472;-81
2022/09/16 19:32:35;;;;;;;12.27;6.57;;;;;;;;;;8396160;28;20458;-82
2022/09/16 19:36:38;;;;;;;15.48;6.53;;;;;;;;;;8378095;28;20048;-82
2022/09/16 19:40:41;;;;;;;15.63;7.30;;;;;;;;;;8392418;28;20055;-82
2022/09/16 19:44:44;;;;;;;15.10;6.45;;;;;;;;;;8395783;28;20460;-82
2022/09/16 19:48:50;;;;;;;11.65;6.30;;;;;;;;;;8395293;28;20048;-83
2022/09/16 19:52:52;;;;;;;11.98;6.95;;;;;;;;;;8395506;28;20089;-82
2022/09/16 19:56:55;;;;;;;11.93;6.75;;;;;;;;;;8395132;28;20131;-81
2022/09/16 20:00:59;;;;;;;10.70;5.90;;;;;;;;;;8395108;28;20049;-81
2022/09/16 20:05:03;;;;;;;11.88;6.75;;;;;;;;;;8409827;28;20487;-81
2022/09/16 20:09:10;;;;;;;11.38;6.10;;;;;;;;;;8394753;28;20053;-82
2022/09/16 20:13:13;;;;;;;15.25;7.00;;;;;;;;;;8395638;28;20123;-81
2022/09/16 20:17:16;;;;;;;14.38;6.70;;;;;;;;;;8395404;28;20439;-81
2022/09/16 20:21:22;;;;;;;12.45;6.72;;;;;;;;;;8394808;28;20044;-81
2022/09/16 20:25:24;;;;;;;20.48;10.25;;;;;;;;;;8397723;28;20091;-81
2022/09/16 20:29:27;;;;;;;14.02;6.47;;;;;;;;;;8397035;28;20051;-80
2022/09/16 20:33:30;;;;;;;13.27;6.85;;;;;;;;;;8408334;28;20072;-80
2022/09/16 20:37:34;;;;;;;11.60;6.10;;;;;;;;;;8424247;28;20410;-82
2022/09/16 20:41:39;;;;;;;14.10;6.40;;;;;;;;;;8403706;28;20048;-82
2022/09/16 20:45:41;;;;;;;12.88;6.30;;;;;;;;;;8401179;28;20093;-81
2022/09/16 20:49:46;;;;;;;18.30;7.32;;;;;;;;;;8400560;28;20045;-81
2022/09/16 20:53:52;;;;;;;11.82;6.07;;;;;;;;;;8400565;28;20055;-83
2022/09/16 20:57:55;;;;;;;12.68;6.72;;;;;;;;;;8400384;28;20118;-81
2022/09/16 21:02:02;;;;;;;10.77;6.22;;;;;;;;;;8400579;28;20407;-82
2022/09/16 21:06:07;;;;;;;11.43;6.50;;;;;;;;;;8400657;28;20071;-81
2022/09/16 21:10:11;;;;;;;14.02;6.47;;;;;;;;;;8399720;28;20480;-81
2022/09/16 21:14:16;;;;;;;11.68;5.78;;;;;;;;;;8399859;28;20045;-86
2022/09/16 21:18:19;;;;;;;9.68;5.45;;;;;;;;;;8399820;28;20055;-81
2022/09/16 21:22:21;;;;;;;10.00;5.05;;;;;;;;;;8399434;28;20049;-81
2022/09/16 21:26:27;;;;;;;10.02;5.50;;;;;;;;;;8399849;28;20500;-81
2022/09/16 21:30:31;;;;;;;11.23;5.78;;;;;;;;;;8399380;28;20086;-82
2022/09/16 21:34:33;;;;;;;10.00;5.38;;;;;;;;;;8399743;28;20044;-82
2022/09/16 21:38:37;;;;;;;11.20;6.07;;;;;;;;;;8413037;28;20420;-81
2022/09/16 21:42:40;;;;;;;9.93;6.10;;;;;;;;;;8398323;28;20053;-81
2022/09/16 21:46:45;;;;;;;11.77;5.47;;;;;;;;;;8398837;28;20048;-81
2022/09/16 21:50:48;;;;;;;11.82;6.32;;;;;;;;;;8395011;28;20055;-81
2022/09/16 21:54:50;;;;;;;10.35;5.13;;;;;;;;;;8398590;28;20503;-81
2022/09/16 21:58:56;;;;;;;9.55;5.10;;;;;;;;;;8398282;28;20045;-81
2022/09/16 22:02:59;;;;;;;11.32;5.55;;;;;;;;;;8405042;28;20400;-81
2022/09/16 22:07:01;;;;;;;10.68;5.22;;;;;;;;;;8405550;28;20078;-81
2022/09/16 22:11:06;;;;;;;14.98;5.63;;;;;;;;;;8397897;28;20063;-81
2022/09/16 22:15:10;;;;;;;13.50;5.57;;;;;;;;;;8397891;28;20063;-82
2022/09/16 22:19:15;;;;;;;9.35;5.20;;;;;;;;;;8411814;28;20035;-82
2022/09/16 22:23:17;;;;;;;10.68;5.28;;;;;;;;;;8437519;28;20052;-85
2022/09/16 22:27:20;;;;;;;11.88;5.55;;;;;;;;;;8413405;28;20048;-82
2022/09/16 22:31:26;;;;;;;13.00;6.10;;;;;;;;;;8428123;28;20092;-86
2022/09/16 22:35:29;;;;;;;14.13;5.43;;;;;;;;;;8399732;28;20041;-81
2022/09/16 22:39:31;;;;;;;14.27;5.78;;;;;;;;;;8426750;28;20537;-82
2022/09/16 22:43:35;;;;;;;14.98;6.20;;;;;;;;;;8426844;28;20138;-87
2022/09/16 22:47:46;;;;;;;17.00;6.78;;;;;;;;;;8423337;28;20504;-86
2022/09/16 22:51:51;;;;;;;10.48;5.63;;;;;;;;;;8438117;28;20539;-88
2022/09/16 22:55:56;;;;;;;12.20;5.68;;;;;;;;;;8419082;28;20661;-83
2022/09/16 22:59:59;;;;;;;10.55;5.47;;;;;;;;;;8403781;28;20449;-83
2022/09/16 23:04:04;;;;;;;16.50;5.70;;;;;;;;;;8433093;28;20047;-88
2022/09/16 23:08:06;;;;;;;11.63;5.78;;;;;;;;;;8437905;28;20127;-82
2022/09/16 23:12:09;;;;;;;13.43;6.05;;;;;;;;;;8427812;28;20052;-82
2022/09/16 23:16:15;;;;;;;14.85;6.80;;;;;;;;;;8427438;28;20044;-82
2022/09/16 23:20:18;;;;;;;12.55;5.80;;;;;;;;;;8425044;28;20784;-86
2022/09/16 23:24:22;;;;;;;13.02;5.43;;;;;;;;;;8427645;28;20106;-82
2022/09/16 23:28:24;;;;;;;14.20;6.78;;;;;;;;;;8417300;28;20053;-84
2022/09/16 23:32:28;;;;;;;10.98;5.63;;;;;;;;;;8431976;28;20472;-82
2022/09/16 23:36:33;;;;;;;13.63;5.80;;;;;;;;;;8431607;28;20672;-82
2022/09/16 23:40:37;;;;;;;11.27;5.63;;;;;;;;;;8429424;28;20130;-82
2022/09/16 23:44:39;;;;;;;12.52;5.90;;;;;;;;;;8423330;28;20063;-86
2022/09/16 23:48:42;;;;;;;15.73;5.93;;;;;;;;;;8428157;28;20131;-84
2022/09/16 23:52:48;;;;;;;15.85;6.43;;;;;;;;;;8426168;28;20501;-83
2022/09/16 23:56:50;;;;;;;16.85;6.40;;;;;;;;;;8434295;28;20042;-82
